Time;durP1;ratioP1;P1;durP2;ratioP2;P2;SDS_P1;SDS_P2;PMS_P1;PMS_P2;Temp;Humidity;BMP_temperature;BMP_pressure;BME280_temperature;BME280_humidity;BME280_pressure;Samples;Min_cycle;Max_cycle;Signal;HPM_P1;HPM_P2
2022/01/20 00:02:09;;;;;;;38.83;16.00;;;3.80;99.90;;;;;;5059670;28;20914;-62
2022/01/20 00:04:44;;;;;;;36.60;15.60;;;3.70;99.90;;;;;;5055236;28;20473;-62
2022/01/20 00:26:50;;;;;;;39.87;12.80;;;3.40;99.90;;;;;;5056141;28;20788;-62
2022/01/20 00:29:29;;;;;;;31.87;11.57;;;3.40;99.90;;;;;;5050004;28;20494;-62
2022/01/20 00:32:09;;;;;;;31.60;10.67;;;3.40;99.90;;;;;;5051421;28;20854;-62
2022/01/20 00:37:35;;;;;;;33.87;9.40;;;3.40;99.90;;;;;;5016517;28;20778;-62
2022/01/20 00:40:05;;;;;;;29.47;8.37;;;3.40;99.90;;;;;;5014229;28;20460;-62
2022/01/20 00:42:34;;;;;;;22.67;9.83;;;3.40;99.90;;;;;;5022056;28;20460;-62
2022/01/20 00:45:02;;;;;;;32.67;9.97;;;3.40;99.90;;;;;;5047957;28;20520;-62
2022/01/20 00:47:32;;;;;;;29.50;11.13;;;3.40;99.90;;;;;;5056766;28;20459;-62
2022/01/20 00:49:59;;;;;;;34.20;11.87;;;3.40;99.90;;;;;;5038670;28;20525;-62
2022/01/20 00:52:26;;;;;;;36.47;10.37;;;3.30;99.90;;;;;;5045954;28;20529;-62
2022/01/20 00:54:53;;;;;;;29.83;12.20;;;3.30;99.90;;;;;;5062464;28;20439;-62
2022/01/20 00:57:20;;;;;;;31.50;11.67;;;3.30;99.90;;;;;;5045692;28;20591;-61
2022/01/20 00:59:48;;;;;;;27.97;10.17;;;3.40;99.90;;;;;;5058595;28;20436;-61
2022/01/20 01:02:19;;;;;;;30.33;11.30;;;3.30;99.90;;;;;;5047047;28;20467;-61
2022/01/20 01:04:46;;;;;;;36.13;11.27;;;3.30;99.90;;;;;;5057075;28;20451;-61
2022/01/20 01:07:43;;;;;;;33.13;11.47;;;3.30;99.90;;;;;;5057058;28;20468;-61
2022/01/20 01:10:12;;;;;;;31.43;12.60;;;3.40;99.90;;;;;;5057787;28;20440;-60
2022/01/20 01:12:46;;;;;;;50.33;13.73;;;3.50;99.90;;;;;;5055924;28;20433;-61
2022/01/20 01:15:20;;;;;;;36.47;12.20;;;3.50;99.90;;;;;;5057327;28;20894;-61
2022/01/20 01:20:45;;;;;;;33.67;10.40;;;3.40;99.90;;;;;;5056952;28;20548;-61
2022/01/20 01:23:14;;;;;;;28.77;10.80;;;3.30;99.90;;;;;;5056525;28;20569;-61
2022/01/20 01:25:41;;;;;;;36.70;12.00;;;3.30;99.90;;;;;;5057611;28;20592;-61
2022/01/20 01:28:08;;;;;;;37.90;10.43;;;3.30;99.90;;;;;;5057980;28;20462;-61
2022/01/20 01:30:57;;;;;;;41.23;10.67;;;3.20;99.90;;;;;;5058179;28;20436;-61
2022/01/20 01:33:25;;;;;;;29.00;11.73;;;3.30;99.90;;;;;;5056951;28;20466;-61
2022/01/20 01:35:56;;;;;;;38.87;11.67;;;3.40;99.90;;;;;;5057986;28;20445;-61
2022/01/20 01:38:35;;;;;;;42.30;10.37;;;3.40;99.90;;;;;;5057971;28;20790;-61
2022/01/20 01:41:03;;;;;;;29.73;10.70;;;3.40;99.90;;;;;;5058378;28;20466;-61
2022/01/20 01:43:31;;;;;;;32.67;12.07;;;3.40;99.90;;;;;;5057040;28;20528;-61
2022/01/20 01:46:01;;;;;;;33.40;13.70;;;3.40;99.90;;;;;;5057580;28;20575;-61
2022/01/20 01:48:28;;;;;;;26.80;10.10;;;3.40;99.90;;;;;;5057327;28;20887;-61
2022/01/20 01:50:55;;;;;;;37.63;12.30;;;3.50;99.90;;;;;;5056988;28;20888;-61
2022/01/20 01:53:23;;;;;;;26.20;11.47;;;3.60;99.90;;;;;;5056896;28;20462;-61
2022/01/20 01:55:50;;;;;;;30.93;13.30;;;3.50;99.90;;;;;;5057560;28;20803;-61
2022/01/20 01:58:19;;;;;;;26.93;12.83;;;3.60;99.90;;;;;;5056717;28;20529;-61
2022/01/20 02:00:46;;;;;;;38.90;13.37;;;3.60;99.90;;;;;;5057266;28;20512;-61
2022/01/20 02:03:15;;;;;;;28.37;13.70;;;3.60;99.90;;;;;;5057145;28;20527;-61
2022/01/20 02:05:56;;;;;;;35.37;12.30;;;3.60;99.90;;;;;;5056648;28;20477;-61
2022/01/20 02:08:30;;;;;;;31.77;11.60;;;3.50;99.90;;;;;;5057291;28;20814;-62
2022/01/20 02:19:19;;;;;;;36.63;12.43;;;3.40;99.90;;;;;;5055933;28;20561;-61
2022/01/20 02:21:49;;;;;;;41.73;14.50;;;3.40;99.90;;;;;;5057509;28;20489;-61
2022/01/20 02:24:16;;;;;;;32.43;14.37;;;3.40;99.90;;;;;;5057524;28;20488;-61
2022/01/20 02:26:44;;;;;;;34.07;13.30;;;3.40;99.90;;;;;;5057419;28;20462;-61
2022/01/20 02:29:11;;;;;;;43.47;14.50;;;3.40;99.90;;;;;;5056645;28;20811;-61
2022/01/20 02:31:39;;;;;;;37.90;13.23;;;3.40;99.90;;;;;;5055745;28;20923;-61
2022/01/20 02:34:09;;;;;;;35.57;13.80;;;3.40;99.90;;;;;;5056566;28;20470;-61
2022/01/20 02:36:38;;;;;;;40.03;14.20;;;3.40;99.90;;;;;;5056351;28;20524;-61
2022/01/20 02:39:20;;;;;;;30.63;13.27;;;3.40;99.90;;;;;;5057012;28;20544;-61
2022/01/20 02:44:53;;;;;;;36.37;12.70;;;3.40;99.90;;;;;;5056656;28;20554;-61
2022/01/20 02:47:22;;;;;;;24.57;11.50;;;3.40;99.90;;;;;;5057292;28;20555;-61
2022/01/20 02:49:49;;;;;;;36.97;13.87;;;3.40;99.90;;;;;;5056244;28;20882;-61
2022/01/20 02:52:16;;;;;;;27.33;11.27;;;3.40;99.90;;;;;;5055767;28;20487;-61
2022/01/20 02:54:45;;;;;;;37.30;13.93;;;3.40;99.90;;;;;;5056689;28;20462;-61
2022/01/20 02:57:12;;;;;;;31.93;12.60;;;3.30;99.90;;;;;;5056906;28;20466;-61
2022/01/20 02:59:40;;;;;;;23.80;11.03;;;3.30;99.90;;;;;;5056462;28;20471;-61
2022/01/20 03:02:09;;;;;;;31.83;11.60;;;3.30;99.90;;;;;;5056947;28;20872;-61
2022/01/20 03:04:37;;;;;;;22.60;10.73;;;3.40;99.90;;;;;;5056985;28;20466;-61
2022/01/20 03:07:07;;;;;;;31.43;10.63;;;3.30;99.90;;;;;;5055612;28;20474;-61
2022/01/20 03:09:35;;;;;;;32.43;11.40;;;3.40;99.90;;;;;;5056360;28;20463;-61
2022/01/20 03:12:07;;;;;;;20.53;8.13;;;3.50;99.90;;;;;;5060380;28;20472;-62
2022/01/20 03:14:34;;;;;;;39.37;9.47;;;3.40;99.90;;;;;;5060806;28;20544;-61
2022/01/20 03:17:01;;;;;;;19.70;9.17;;;3.40;99.90;;;;;;5060382;28;20466;-61
2022/01/20 03:19:28;;;;;;;24.37;9.47;;;3.40;99.90;;;;;;5059964;28;20549;-61
2022/01/20 03:21:55;;;;;;;25.67;9.40;;;3.30;99.90;;;;;;5060223;28;20523;-61
2022/01/20 03:24:22;;;;;;;29.97;9.33;;;3.40;99.90;;;;;;5060524;28;20516;-62
2022/01/20 03:26:49;;;;;;;29.97;9.60;;;3.40;99.90;;;;;;5059974;28;20895;-61
2022/01/20 03:29:18;;;;;;;22.93;8.70;;;3.40;99.90;;;;;;5060116;28;20943;-61
2022/01/20 03:31:45;;;;;;;29.77;10.87;;;3.40;99.90;;;;;;5060868;28;20913;-61
2022/01/20 03:34:12;;;;;;;25.70;9.50;;;3.40;99.90;;;;;;5060382;28;20462;-61
2022/01/20 03:36:39;;;;;;;25.60;9.07;;;3.40;99.90;;;;;;5059413;28;20470;-61
2022/01/20 03:39:07;;;;;;;19.70;8.90;;;3.40;99.90;;;;;;5059607;28;20471;-61
2022/01/20 03:41:34;;;;;;;16.93;8.20;;;3.40;99.90;;;;;;5059665;28;20531;-61
2022/01/20 03:44:01;;;;;;;20.83;9.10;;;3.40;99.90;;;;;;5060062;28;20462;-61
2022/01/20 03:46:30;;;;;;;28.03;11.90;;;3.50;99.90;;;;;;5060392;28;20524;-60
2022/01/20 03:49:07;;;;;;;23.37;9.00;;;3.40;99.90;;;;;;5059488;28;20759;-61
2022/01/20 03:51:34;;;;;;;30.13;9.80;;;3.40;99.90;;;;;;5059960;28;20480;-60
2022/01/20 03:54:03;;;;;;;25.90;8.20;;;3.40;99.90;;;;;;5059405;28;20462;-61
2022/01/20 03:56:31;;;;;;;22.90;7.83;;;3.40;99.90;;;;;;5059877;28;20540;-59
2022/01/20 03:58:58;;;;;;;19.30;7.93;;;3.40;99.90;;;;;;5059167;28;20522;-60
2022/01/20 04:01:25;;;;;;;24.47;8.17;;;3.40;99.90;;;;;;5058810;28;20474;-61
2022/01/20 04:03:54;;;;;;;35.90;9.30;;;3.50;99.90;;;;;;5059661;28;20527;-59
2022/01/20 04:06:22;;;;;;;15.93;8.27;;;3.40;99.90;;;;;;5059877;28;20834;-61
2022/01/20 04:08:50;;;;;;;19.77;8.13;;;3.50;99.90;;;;;;5058672;28;20458;-58
2022/01/20 04:11:21;;;;;;;21.17;9.03;;;3.50;99.90;;;;;;5058812;28;20470;-60
2022/01/20 04:13:49;;;;;;;21.87;8.40;;;3.50;99.90;;;;;;5059840;28;21608;-61
2022/01/20 04:16:20;;;;;;;24.07;10.23;;;3.50;99.90;;;;;;5059577;28;20947;-61
2022/01/20 04:18:56;;;;;;;22.00;9.60;;;3.50;99.90;;;;;;5059035;28;21071;-60
2022/01/20 04:21:27;;;;;;;25.23;10.67;;;3.50;99.90;;;;;;5058619;28;20549;-61
2022/01/20 04:23:55;;;;;;;15.27;9.20;;;3.40;99.90;;;;;;5058205;28;20462;-61
2022/01/20 04:26:26;;;;;;;23.73;10.87;;;3.30;99.90;;;;;;5059943;28;20876;-61
2022/01/20 04:28:56;;;;;;;20.73;11.43;;;3.30;99.90;;;;;;5059337;28;20850;-61
2022/01/20 04:31:23;;;;;;;19.70;10.20;;;3.30;99.90;;;;;;5059113;28;20469;-60
2022/01/20 04:33:50;;;;;;;21.17;10.63;;;3.30;99.90;;;;;;5058958;28;20555;-61
2022/01/20 04:36:17;;;;;;;30.53;12.57;;;3.40;99.90;;;;;;5059000;28;20454;-60
2022/01/20 04:38:46;;;;;;;17.80;10.63;;;3.40;99.90;;;;;;5059213;28;20460;-61
2022/01/20 04:41:13;;;;;;;21.67;10.97;;;3.40;99.90;;;;;;5057879;28;20470;-59
2022/01/20 04:43:40;;;;;;;17.17;10.80;;;3.40;99.90;;;;;;5058495;28;20462;-61
2022/01/20 04:46:13;;;;;;;17.00;10.23;;;3.30;99.90;;;;;;5059086;28;20512;-61
2022/01/20 04:48:59;;;;;;;16.87;8.87;;;3.40;99.90;;;;;;5058607;28;20516;-61
2022/01/20 04:57:17;;;;;;;19.20;8.00;;;3.40;99.90;;;;;;5010637;28;20462;-61
2022/01/20 04:59:45;;;;;;;19.33;7.43;;;3.40;99.90;;;;;;5058715;28;20501;-60
2022/01/20 05:02:12;;;;;;;24.40;8.00;;;3.50;99.90;;;;;;5057994;28;20964;-60
2022/01/20 05:04:40;;;;;;;19.40;6.70;;;3.50;99.90;;;;;;5066265;28;20473;-61
2022/01/20 05:07:08;;;;;;;24.60;7.70;;;3.40;99.90;;;;;;5068080;28;20835;-61
2022/01/20 05:09:37;;;;;;;19.03;7.30;;;3.50;99.90;;;;;;5067348;28;20455;-59
2022/01/20 05:12:08;;;;;;;14.37;6.53;;;3.50;99.90;;;;;;5067524;28;20822;-56
2022/01/20 05:14:35;;;;;;;15.10;6.47;;;3.40;99.90;;;;;;5067268;28;20440;-60
2022/01/20 05:17:03;;;;;;;15.77;7.43;;;3.40;99.90;;;;;;5068289;28;20458;-60
2022/01/20 05:19:33;;;;;;;21.83;7.80;;;3.40;99.90;;;;;;5065442;28;20505;-57
2022/01/20 05:22:01;;;;;;;16.83;6.90;;;3.40;99.90;;;;;;5066641;28;20732;-57
2022/01/20 05:24:28;;;;;;;16.83;7.27;;;3.40;99.90;;;;;;5066557;28;20465;-59
2022/01/20 05:26:58;;;;;;;12.53;7.80;;;3.40;99.90;;;;;;5067519;28;20534;-58
2022/01/20 05:29:25;;;;;;;18.40;7.47;;;3.30;99.90;;;;;;5066203;28;20490;-58
2022/01/20 05:31:53;;;;;;;12.67;7.20;;;3.30;99.90;;;;;;5065484;28;20488;-57
2022/01/20 05:34:20;;;;;;;10.63;6.93;;;3.20;99.90;;;;;;5065633;28;20734;-60
2022/01/20 05:36:48;;;;;;;14.13;8.20;;;3.20;99.90;;;;;;5058596;28;20454;-59
2022/01/20 05:39:16;;;;;;;12.67;8.30;;;3.10;99.90;;;;;;5056025;28;20500;-56
2022/01/20 05:41:43;;;;;;;12.80;9.97;;;3.10;99.90;;;;;;5061833;28;20497;-58
2022/01/20 05:44:15;;;;;;;15.43;9.70;;;3.10;99.90;;;;;;5064897;28;20493;-61
2022/01/20 05:46:47;;;;;;;17.23;9.37;;;3.20;99.90;;;;;;5064109;28;20462;-60
2022/01/20 05:49:20;;;;;;;16.47;9.60;;;3.10;99.90;;;;;;5065723;28;20458;-60
2022/01/20 05:51:49;;;;;;;23.10;12.33;;;3.20;99.90;;;;;;5066528;28;20496;-58
2022/01/20 05:54:17;;;;;;;20.23;11.13;;;3.20;99.90;;;;;;5065344;28;20458;-60
2022/01/20 05:56:44;;;;;;;18.80;11.10;;;3.20;99.90;;;;;;5065219;28;20808;-58
2022/01/20 05:59:11;;;;;;;19.20;10.60;;;3.20;99.90;;;;;;5064245;28;20543;-58
2022/01/20 06:01:40;;;;;;;19.60;11.60;;;3.20;99.90;;;;;;5065393;28;20458;-61
2022/01/20 06:04:09;;;;;;;14.50;9.10;;;3.10;99.90;;;;;;5061901;28;20782;-58
2022/01/20 06:06:37;;;;;;;17.93;9.87;;;3.00;99.90;;;;;;5067033;28;20920;-57
2022/01/20 06:09:05;;;;;;;15.73;9.83;;;2.90;99.90;;;;;;5064943;28;20728;-60
2022/01/20 06:11:33;;;;;;;16.60;8.97;;;2.90;99.90;;;;;;5066247;28;20464;-60
2022/01/20 06:14:00;;;;;;;16.10;7.83;;;2.80;99.90;;;;;;5065242;28;20887;-60
2022/01/20 06:16:27;;;;;;;13.00;6.30;;;2.70;99.90;;;;;;5062010;28;20914;-60
2022/01/20 06:18:55;;;;;;;17.63;7.43;;;2.60;99.90;;;;;;5058679;28;20457;-60
2022/01/20 06:21:22;;;;;;;11.73;6.40;;;2.70;99.90;;;;;;5059126;28;20489;-59
2022/01/20 06:23:50;;;;;;;15.47;5.90;;;2.70;99.90;;;;;;5064425;28;20457;-61
2022/01/20 06:26:17;;;;;;;11.57;5.27;;;2.70;99.90;;;;;;5063983;28;20527;-57
2022/01/20 06:28:44;;;;;;;16.00;5.30;;;2.70;99.90;;;;;;5066167;28;20531;-59
2022/01/20 06:31:12;;;;;;;12.53;4.80;;;2.70;99.90;;;;;;5066023;28;20520;-58
2022/01/20 06:33:39;;;;;;;9.33;3.70;;;2.60;99.90;;;;;;5064861;28;20461;-59
2022/01/20 06:36:07;;;;;;;16.53;4.57;;;2.70;99.90;;;;;;5066148;28;20464;-58
2022/01/20 06:38:35;;;;;;;10.30;3.90;;;2.60;99.90;;;;;;5066644;28;20816;-57
2022/01/20 06:41:01;;;;;;;11.53;3.93;;;2.50;99.90;;;;;;5066955;28;20462;-59
2022/01/20 06:43:28;;;;;;;11.40;3.80;;;2.50;99.90;;;;;;5065795;28;20436;-59
2022/01/20 06:45:56;;;;;;;19.20;4.47;;;2.50;99.90;;;;;;5059703;28;20907;-59
2022/01/20 06:48:23;;;;;;;16.87;4.10;;;2.50;99.90;;;;;;5064080;28;20907;-60
2022/01/20 06:50:50;;;;;;;12.30;4.20;;;2.50;99.90;;;;;;5055504;28;20871;-60
2022/01/20 06:53:18;;;;;;;16.10;3.67;;;2.50;99.90;;;;;;5056222;28;20512;-59
2022/01/20 06:55:45;;;;;;;13.33;4.40;;;2.50;99.90;;;;;;5055740;28;20544;-59
2022/01/20 06:58:12;;;;;;;15.80;3.70;;;2.50;99.90;;;;;;5056416;28;20495;-59
2022/01/20 07:00:42;;;;;;;13.50;4.00;;;2.50;99.90;;;;;;5056006;28;20464;-58
2022/01/20 07:03:09;;;;;;;11.10;3.23;;;2.60;99.90;;;;;;5053068;28;20437;-60
2022/01/20 07:05:39;;;;;;;15.07;3.50;;;2.50;99.90;;;;;;5054724;28;20437;-60
2022/01/20 07:08:06;;;;;;;22.43;4.80;;;2.60;99.90;;;;;;5054422;28;20445;-60
2022/01/20 07:10:38;;;;;;;9.93;3.47;;;2.60;99.90;;;;;;5055569;28;20895;-60
2022/01/20 07:13:07;;;;;;;14.10;4.30;;;2.50;99.90;;;;;;5055492;28;20531;-60
2022/01/20 07:15:34;;;;;;;17.40;4.20;;;2.50;99.90;;;;;;5055188;28;20440;-61
2022/01/20 07:18:01;;;;;;;11.20;3.90;;;2.50;99.90;;;;;;5055577;28;20815;-60
2022/01/20 07:20:28;;;;;;;10.83;3.57;;;2.50;99.90;;;;;;5052812;28;20525;-60
2022/01/20 07:22:55;;;;;;;11.53;3.07;;;2.50;99.90;;;;;;5055605;28;20906;-60
2022/01/20 07:25:25;;;;;;;14.57;4.77;;;2.60;99.90;;;;;;5055966;28;20870;-60
2022/01/20 07:27:54;;;;;;;18.47;4.07;;;2.60;99.90;;;;;;5053111;28;20459;-60
2022/01/20 07:30:21;;;;;;;15.17;4.37;;;2.50;99.90;;;;;;5055648;28;20526;-60
2022/01/20 07:32:48;;;;;;;11.03;4.27;;;2.50;99.90;;;;;;5056293;28;20479;-60
2022/01/20 07:35:15;;;;;;;12.00;4.33;;;2.50;99.90;;;;;;5055741;28;20441;-60
2022/01/20 07:37:45;;;;;;;15.40;3.93;;;2.50;99.90;;;;;;5054661;28;20466;-61
2022/01/20 07:40:13;;;;;;;13.10;3.77;;;2.50;99.90;;;;;;5053686;28;20515;-60
2022/01/20 07:42:40;;;;;;;11.73;4.30;;;2.40;99.90;;;;;;5055588;28;20556;-60
2022/01/20 07:45:11;;;;;;;15.70;4.53;;;2.40;99.90;;;;;;5056282;28;20458;-60
2022/01/20 07:47:39;;;;;;;9.83;3.13;;;2.30;99.90;;;;;;5056103;28;20462;-60
2022/01/20 07:50:07;;;;;;;20.33;3.50;;;2.30;99.90;;;;;;5056249;28;20561;-61
2022/01/20 07:52:34;;;;;;;18.70;4.33;;;2.40;99.90;;;;;;5056261;28;20884;-60
2022/01/20 07:55:04;;;;;;;14.20;4.20;;;2.40;99.90;;;;;;5056760;28;20512;-60
2022/01/20 07:57:32;;;;;;;14.87;4.20;;;2.40;99.90;;;;;;5056746;28;20437;-61
2022/01/20 08:00:00;;;;;;;19.23;4.20;;;2.40;99.90;;;;;;5058730;28;20536;-60
2022/01/20 08:02:29;;;;;;;18.63;4.00;;;2.40;99.90;;;;;;5060006;28;20505;-61
2022/01/20 08:04:56;;;;;;;8.23;4.30;;;2.30;99.90;;;;;;5059956;28;20477;-60
2022/01/20 08:07:32;;;;;;;14.47;3.80;;;2.30;99.90;;;;;;5059050;28;20511;-60
2022/01/20 08:10:02;;;;;;;13.93;4.60;;;2.30;99.90;;;;;;5056169;28;20507;-60
2022/01/20 08:12:30;;;;;;;12.53;3.83;;;2.30;99.90;;;;;;5046254;28;20463;-60
2022/01/20 08:14:58;;;;;;;14.93;4.20;;;2.30;99.90;;;;;;5059299;28;20466;-61
2022/01/20 08:17:25;;;;;;;18.90;4.40;;;2.30;99.90;;;;;;5059269;28;20460;-60
2022/01/20 08:19:56;;;;;;;14.60;4.10;;;2.40;99.90;;;;;;5057849;28;20509;-61
2022/01/20 08:22:23;;;;;;;11.63;3.50;;;2.50;99.90;;;;;;5059452;28;20513;-60
2022/01/20 08:24:52;;;;;;;7.33;3.00;;;2.50;99.90;;;;;;5059071;28;20954;-61
2022/01/20 08:27:19;;;;;;;10.97;3.97;;;2.70;99.90;;;;;;5058458;28;20967;-60
2022/01/20 08:29:51;;;;;;;13.73;3.90;;;2.80;99.90;;;;;;5057817;28;20471;-61
2022/01/20 08:32:19;;;;;;;13.27;4.07;;;2.90;99.90;;;;;;5056747;28;20528;-61
2022/01/20 08:34:46;;;;;;;11.67;3.13;;;3.00;99.90;;;;;;5058758;28;20466;-61
2022/01/20 08:37:17;;;;;;;10.77;3.50;;;3.10;99.90;;;;;;5058316;28;20470;-61
2022/01/20 08:39:45;;;;;;;15.13;4.43;;;3.10;99.90;;;;;;5056313;28;20551;-61
2022/01/20 08:42:12;;;;;;;14.23;4.30;;;3.10;99.90;;;;;;5057254;28;20472;-61
2022/01/20 08:44:40;;;;;;;10.50;3.80;;;3.20;99.90;;;;;;5055649;28;20951;-61
2022/01/20 08:47:16;;;;;;;11.43;3.80;;;3.20;99.90;;;;;;5058657;28;20508;-61
2022/01/20 08:49:46;;;;;;;12.17;3.80;;;3.10;99.90;;;;;;5056173;28;20450;-61
2022/01/20 08:52:16;;;;;;;11.53;4.57;;;3.50;99.90;;;;;;5057392;28;20467;-61
2022/01/20 08:54:47;;;;;;;20.00;3.60;;;3.60;99.90;;;;;;5057558;28;20832;-61
2022/01/20 08:57:15;;;;;;;15.70;4.27;;;3.80;99.90;;;;;;5057849;28;20433;-61
2022/01/20 08:59:42;;;;;;;17.20;4.07;;;3.90;99.90;;;;;;5058146;28;20572;-61
2022/01/20 09:02:15;;;;;;;13.73;4.27;;;3.90;99.90;;;;;;5057410;28;20470;-61
2022/01/20 09:04:45;;;;;;;9.80;3.20;;;3.60;99.90;;;;;;5055974;28;20466;-61
2022/01/20 09:07:12;;;;;;;10.13;2.90;;;3.40;99.90;;;;;;5058306;28;20766;-61
2022/01/20 09:09:42;;;;;;;13.93;3.37;;;3.10;99.90;;;;;;5055469;28;20855;-61
2022/01/20 09:17:43;;;;;;;8.80;3.27;;;3.30;99.90;;;;;;5055569;28;20429;-61
2022/01/20 09:20:13;;;;;;;9.27;3.07;;;3.50;87.20;;;;;;5057472;28;20807;-61
2022/01/20 09:22:41;;;;;;;12.50;3.60;;;3.60;3.00;;;;;;5054931;28;20905;-61
2022/01/20 09:25:12;;;;;;;11.57;3.60;;;3.60;1.00;;;;;;5057810;28;20553;-61
2022/01/20 09:27:39;;;;;;;9.90;3.50;;;3.60;1.00;;;;;;5057691;28;20491;-61
2022/01/20 09:30:10;;;;;;;12.10;3.70;;;3.60;1.00;;;;;;5057806;28;20535;-61
2022/01/20 09:32:39;;;;;;;11.17;4.07;;;3.50;1.00;;;;;;5058078;28;20928;-61
2022/01/20 09:35:07;;;;;;;9.73;3.37;;;3.50;1.00;;;;;;5057750;28;20475;-61
2022/01/20 09:37:38;;;;;;;14.27;4.27;;;3.50;1.00;;;;;;5058327;28;20524;-61
2022/01/20 09:40:07;;;;;;;11.90;4.03;;;3.50;1.00;;;;;;5058101;28;20927;-61
2022/01/20 09:42:42;;;;;;;13.73;3.20;;;3.50;1.00;;;;;;5057790;28;20476;-61
2022/01/20 09:45:09;;;;;;;13.87;3.80;;;3.40;1.00;;;;;;5058509;28;20892;-61
2022/01/20 09:47:37;;;;;;;16.87;3.97;;;3.30;1.00;;;;;;5056917;28;20466;-61
2022/01/20 09:50:06;;;;;;;7.17;3.73;;;3.40;99.90;;;;;;5057321;28;20912;-61
2022/01/20 09:52:33;;;;;;;14.40;3.73;;;3.50;99.90;;;;;;5056562;28;20470;-61
2022/01/20 09:55:00;;;;;;;8.70;3.10;;;3.50;1.00;;;;;;5057509;28;20481;-61
2022/01/20 09:57:27;;;;;;;14.83;3.67;;;3.40;99.90;;;;;;5057937;28;20466;-61
2022/01/20 10:00:00;;;;;;;15.80;3.63;;;3.40;1.00;;;;;;5057888;28;20464;-61
2022/01/20 10:02:26;;;;;;;7.93;3.03;;;3.20;1.00;;;;;;5057674;28;20553;-61
2022/01/20 10:04:56;;;;;;;21.67;4.23;;;3.20;99.90;;;;;;5057996;28;20489;-61
2022/01/20 10:07:33;;;;;;;11.67;3.87;;;3.20;99.90;;;;;;5057783;28;20478;-61
2022/01/20 10:10:01;;;;;;;10.33;4.07;;;3.30;99.90;;;;;;5057868;28;20576;-61
2022/01/20 10:12:31;;;;;;;7.27;2.93;;;3.40;99.90;;;;;;5057368;28;20487;-61
2022/01/20 10:15:00;;;;;;;15.70;4.20;;;3.50;99.90;;;;;;5057788;28;20470;-62
2022/01/20 10:17:31;;;;;;;11.40;3.77;;;3.40;14.70;;;;;;5056831;28;20524;-61
2022/01/20 10:20:00;;;;;;;14.73;4.27;;;3.40;11.70;;;;;;5056096;28;20525;-61
2022/01/20 10:22:28;;;;;;;10.50;4.00;;;3.40;20.40;;;;;;5057524;28;20469;-61
2022/01/20 10:25:03;;;;;;;12.53;3.80;;;3.50;79.20;;;;;;5056473;28;20540;-62
2022/01/20 10:27:32;;;;;;;13.13;3.80;;;3.60;45.90;;;;;;5057033;28;20465;-62
2022/01/20 10:30:02;;;;;;;13.80;4.37;;;3.50;1.00;;;;;;5057050;28;20545;-62
2022/01/20 10:32:40;;;;;;;8.67;3.03;;;3.50;1.00;;;;;;5057702;28;20516;-61
2022/01/20 10:35:08;;;;;;;16.20;5.10;;;3.50;1.00;;;;;;5057781;28;20468;-61
2022/01/20 10:37:35;;;;;;;20.97;3.70;;;3.40;1.00;;;;;;5058892;28;20470;-62
2022/01/20 10:40:11;;;;;;;10.00;3.70;;;3.60;1.00;;;;;;5057017;28;20799;-62
2022/01/20 10:42:40;;;;;;;13.17;3.50;;;3.60;1.00;;;;;;5057926;28;20450;-62
2022/01/20 10:45:21;;;;;;;14.10;3.37;;;3.50;1.00;;;;;;5056972;28;20903;-62
2022/01/20 10:47:52;;;;;;;15.63;3.87;;;3.30;1.00;;;;;;5056875;28;20533;-62
2022/01/20 10:50:23;;;;;;;12.33;3.77;;;3.40;1.00;;;;;;5057189;28;20454;-62
2022/01/20 10:52:52;;;;;;;8.73;3.13;;;3.40;1.00;;;;;;5056764;28;20830;-62
2022/01/20 10:55:25;;;;;;;16.17;4.00;;;3.30;1.00;;;;;;5056232;28;20492;-62
2022/01/20 10:57:53;;;;;;;13.37;3.30;;;3.30;1.00;;;;;;5056949;28;20470;-62
2022/01/20 11:00:25;;;;;;;10.83;3.40;;;3.20;1.00;;;;;;5056026;28;20520;-62
2022/01/20 11:02:54;;;;;;;13.90;3.07;;;3.10;1.00;;;;;;5057355;28;20437;-62
2022/01/20 11:05:26;;;;;;;19.80;3.70;;;3.20;1.00;;;;;;5055992;28;20462;-62
2022/01/20 11:07:57;;;;;;;9.83;3.37;;;3.20;1.00;;;;;;5056863;28;20483;-62
2022/01/20 11:10:24;;;;;;;8.07;2.80;;;3.30;1.00;;;;;;5056744;28;20492;-62
2022/01/20 11:12:51;;;;;;;14.00;3.27;;;3.30;1.00;;;;;;5056948;28;20473;-62
2022/01/20 11:15:26;;;;;;;9.80;3.77;;;3.50;1.00;;;;;;5056153;28;20471;-62
2022/01/20 11:17:55;;;;;;;11.03;4.23;;;3.60;1.00;;;;;;5044051;28;20737;-62
2022/01/20 11:20:25;;;;;;;9.10;3.60;;;3.60;1.00;;;;;;5056086;28;20560;-62
2022/01/20 11:22:54;;;;;;;11.50;3.43;;;3.60;1.00;;;;;;5055977;28;20548;-62
2022/01/20 11:25:24;;;;;;;10.33;3.13;;;3.80;1.00;;;;;;5057070;28;20463;-62
2022/01/20 11:27:53;;;;;;;12.87;3.33;;;3.80;1.00;;;;;;5055938;28;20465;-62
2022/01/20 11:30:23;;;;;;;12.00;3.43;;;3.70;1.00;;;;;;5056691;28;20899;-62
2022/01/20 11:33:03;;;;;;;8.03;3.13;;;3.80;1.00;;;;;;5060154;28;20437;-62
2022/01/20 11:35:43;;;;;;;12.57;3.30;;;3.50;1.00;;;;;;5059435;28;20462;-62
2022/01/20 11:38:12;;;;;;;16.33;3.93;;;3.50;1.00;;;;;;5059330;28;20927;-61
2022/01/20 11:40:54;;;;;;;8.20;3.70;;;3.70;1.00;;;;;;5060135;28;20524;-62
2022/01/20 11:43:37;;;;;;;11.00;3.27;;;3.70;1.00;;;;;;5060375;28;20469;-61
2022/01/20 11:46:12;;;;;;;9.63;4.00;;;3.70;1.00;;;;;;5059765;28;20466;-62
2022/01/20 11:48:53;;;;;;;8.77;2.80;;;3.80;1.00;;;;;;5059351;28;20465;-62
2022/01/20 11:51:20;;;;;;;10.27;3.70;;;3.70;1.00;;;;;;5058550;28;20535;-62
2022/01/20 11:53:57;;;;;;;12.97;3.10;;;3.60;1.00;;;;;;5058326;28;20449;-61
2022/01/20 11:56:34;;;;;;;9.97;3.20;;;3.60;1.00;;;;;;5058025;28;20458;-62
2022/01/20 11:59:01;;;;;;;8.00;4.10;;;3.70;1.00;;;;;;5058593;28;20561;-62
2022/01/20 12:01:30;;;;;;;11.93;2.93;;;4.00;1.00;;;;;;5059042;28;20489;-62
2022/01/20 12:03:59;;;;;;;12.07;4.60;;;4.20;1.00;;;;;;5060585;28;20485;-62
2022/01/20 12:06:27;;;;;;;11.67;3.20;;;4.30;1.00;;;;;;5058844;28;20512;-61
2022/01/20 12:09:02;;;;;;;10.40;3.97;;;4.30;1.00;;;;;;5057445;28;20779;-62
2022/01/20 12:11:39;;;;;;;16.60;4.03;;;4.40;1.00;;;;;;5058700;28;20462;-62
2022/01/20 12:14:07;;;;;;;17.43;3.30;;;4.30;1.00;;;;;;5058488;28;20920;-62
2022/01/20 12:16:36;;;;;;;9.43;3.83;;;4.00;1.00;;;;;;5059584;28;20509;-61
2022/01/20 12:19:08;;;;;;;20.23;4.60;;;4.00;1.00;;;;;;5058722;28;20790;-61
2022/01/20 12:21:36;;;;;;;8.97;3.63;;;4.00;1.00;;;;;;5058889;28;20498;-61
2022/01/20 12:24:03;;;;;;;6.97;3.30;;;4.10;1.00;;;;;;5058904;28;20475;-61
2022/01/20 12:26:34;;;;;;;11.03;3.63;;;4.10;1.00;;;;;;5059215;28;20528;-61
2022/01/20 12:29:03;;;;;;;10.67;3.43;;;4.10;1.00;;;;;;5059152;28;20485;-61
2022/01/20 12:31:32;;;;;;;6.67;3.33;;;4.10;1.00;;;;;;5058232;28;20512;-61
2022/01/20 12:33:59;;;;;;;13.07;3.80;;;4.10;1.00;;;;;;5058350;28;20557;-61
2022/01/20 12:36:30;;;;;;;8.57;2.80;;;4.10;1.00;;;;;;5058538;28;20470;-61
2022/01/20 12:39:01;;;;;;;8.37;3.90;;;3.90;1.00;;;;;;5058801;28;20469;-61
2022/01/20 12:41:28;;;;;;;10.40;3.90;;;3.60;1.00;;;;;;5055506;28;20491;-61
2022/01/20 12:44:03;;;;;;;19.80;4.20;;;3.50;1.00;;;;;;5054284;28;20466;-61
2022/01/20 12:46:36;;;;;;;16.63;4.70;;;3.70;1.00;;;;;;5056921;28;20468;-61
2022/01/20 12:49:05;;;;;;;14.13;3.90;;;3.70;1.00;;;;;;5058276;28;20816;-61
2022/01/20 12:51:36;;;;;;;10.23;3.37;;;3.60;1.00;;;;;;5057564;28;20466;-61
2022/01/20 12:54:08;;;;;;;8.83;3.33;;;3.60;1.00;;;;;;5057783;28;20470;-61
2022/01/20 12:56:37;;;;;;;13.47;3.83;;;3.60;1.00;;;;;;5058472;28;20471;-61
2022/01/20 12:59:05;;;;;;;11.07;3.47;;;3.70;1.00;;;;;;5058713;28;20493;-61
2022/01/20 13:01:42;;;;;;;7.93;3.93;;;3.90;1.00;;;;;;5057640;28;20523;-61
2022/01/20 13:04:10;;;;;;;11.73;3.17;;;3.80;1.00;;;;;;5058451;28;20910;-61
2022/01/20 13:06:45;;;;;;;8.07;3.67;;;3.80;1.00;;;;;;5058869;28;20485;-61
2022/01/20 13:09:13;;;;;;;9.93;3.20;;;3.70;1.00;;;;;;5057878;28;20469;-61
2022/01/20 13:11:46;;;;;;;6.50;3.00;;;3.70;1.00;;;;;;5054864;28;21065;-61
2022/01/20 13:14:16;;;;;;;16.83;4.70;;;3.80;1.00;;;;;;5058069;28;20879;-61
2022/01/20 13:16:54;;;;;;;8.43;4.30;;;4.50;1.00;;;;;;5055629;28;20719;-61
2022/01/20 13:19:21;;;;;;;17.50;4.73;;;4.60;1.00;;;;;;5057754;28;20470;-61
2022/01/20 13:21:54;;;;;;;7.47;4.00;;;4.40;1.00;;;;;;5057069;28;20494;-60
2022/01/20 13:24:27;;;;;;;12.87;4.83;;;4.40;1.00;;;;;;5058561;28;20441;-61
2022/01/20 13:26:56;;;;;;;7.60;4.70;;;4.10;1.00;;;;;;5058321;28;20521;-61
2022/01/20 13:29:24;;;;;;;18.73;4.27;;;3.90;1.00;;;;;;5055264;28;20470;-60
2022/01/20 13:31:57;;;;;;;8.87;4.70;;;3.60;1.00;;;;;;5058055;28;20474;-60
2022/01/20 13:34:24;;;;;;;18.30;5.20;;;3.50;1.00;;;;;;5038873;28;20437;-60
2022/01/20 13:36:54;;;;;;;15.40;5.60;;;3.40;1.00;;;;;;5057250;28;20731;-60
2022/01/20 13:39:34;;;;;;;16.40;5.50;;;3.40;1.00;;;;;;5057248;28;20458;-60
2022/01/20 13:42:08;;;;;;;12.47;5.90;;;3.50;6.40;;;;;;5057494;28;20487;-59
2022/01/20 13:47:23;;;;;;;9.10;3.50;;;3.70;8.60;;;;;;5057254;28;20445;-61
2022/01/20 13:49:52;;;;;;;5.70;3.17;;;3.60;1.00;;;;;;5057248;28;20462;-60
2022/01/20 13:52:22;;;;;;;8.97;3.57;;;3.50;1.00;;;;;;5057576;28;20815;-60